Arcadia, Florida
Current Conditions -  °F | °C
As of 7:53 PM on Saturday 25 Oct 2014 (Local Time) from KPGD Reporting Station
Clear Clear  
Wind Chill: 22°   Ceiling: Unl
Heat Index: 22°   Visibility: 10mi
Dew Point: 14°   Wind: 6mph
Humidity: 63%   Direction: 10°N
Pressure: 29.97"   Gusts: NA
Location:  27.22°N, 81.86°W
Report Text: KPGD 252353Z 01005KT 10SM CLR 22/14 A2997 RMK AO2 SLP148 T02170144 10283 20217 53013
Loading
Personal Weather Stations






























Interactive Weather Map
Tropical Storm Tracking
New forecast layout! Learn more

10-Day Weather Forecast

Advertisements
Track Severe Weather on mobile